Список аэропортов
Фактическая погода:

15 августа, 23:30
Температура: +20°C (+20.0*)
Ветер: южный 2 м/с
Давление: *762 мм
Без существ. явл.
Время (МСК)Темп. СВетерВлажностьДавлениеОблачностьОсадки
21:00+22СВ, 3 м/с80%1015 гПаясно
22:00+21В, 1 м/с81%1016 гПаясно
23:00+20ЮВ, 2 м/с80%1016 гПаясно
16 августа
00:00+19ЮВ, 1 м/с82%1016 гПаясно
01:00+18ЮВ, 1 м/с83%1016 гПаясно
02:00+17ЮВ, 1 м/с82%1016 гПаясно
03:00+16ЮВ, 1 м/с82%1016 гПаясно
04:00+16ЮВ, 1 м/с83%1016 гПаясно
05:00+15Ю, 1 м/с84%1016 гПаясно
06:00+15Ю, 1 м/с84%1016 гПаясно
07:00+14ЮЗ, 1 м/с83%1016 гПаясно
08:00+16ЮЗ, 1 м/с76%1016 гПаясно
09:00+19Штиль 69%1016 гПаясно
10:00+21Штиль 62%1015 гПаясно
11:00+23СВ, 1 м/с57%1015 гПаясно
12:00+25СВ, 2 м/с54%1015 гПаясно
13:00+26СВ, 3 м/с44%1014 гПамалооблачно
14:00+27СВ, 3 м/с38%1014 гПамалооблачно
15:00+28СВ, 4 м/с38%1014 гПамалооблачно
16:00+28СВ, 4 м/с39%1013 гПаясно
17:00+28СВ, 5 м/с40%1013 гПаясно
18:00+27СВ, 5 м/с42%1013 гПаясно
19:00+26СВ, 4 м/с47%1013 гПамалооблачно
20:00+25СВ, 3 м/с49%1014 гПаясно
21:00+23СВ, 1 м/с54%1014 гПаясно
22:00+21СВ, 1 м/с57%1015 гПас прояснениями
23:00+20ЮВ, 1 м/с63%1015 гПас прояснениями
17 августа
00:00+20Ю, 2 м/с69%1016 гПаоблачно
01:00+18Ю, 2 м/с76%1016 гПаоблачно
02:00+18Ю, 1 м/с80%1016 гПас прояснениями
03:00+17Ю, 1 м/с82%1016 гПаясно
04:00+16Ю, 1 м/с83%1016 гПаясно
05:00+16ЮЗ, 1 м/с86%1016 гПаясно
06:00+15ЮЗ, 1 м/с87%1016 гПаясно
07:00+15ЮЗ, 1 м/с88%1016 гПаясно
08:00+17ЮЗ, 1 м/с81%1016 гПаясно
09:00+19ЮЗ, 1 м/с74%1016 гПаясно
10:00+21ЮЗ, 1 м/с62%1015 гПаясно
11:00+23Штиль 56%1015 гПаясно
12:00+25СВ, 1 м/с49%1015 гПаясно
13:00+27СВ, 1 м/с39%1015 гПаясно
14:00+28СВ, 2 м/с34%1014 гПаясно
15:00+29СВ, 3 м/с31%1014 гПаясно
16:00+29СВ, 3 м/с30%1014 гПамалооблачно
17:00+29С, 4 м/с32%1013 гПаясно
18:00+28С, 5 м/с37%1013 гПаясно
19:00+27С, 5 м/с43%1014 гПаясно
20:00+26С, 4 м/с47%1014 гПаясно
21:00+24СВ, 2 м/с51%1015 гПаясно